sensor_id;sensor_type;location;lat;lon;timestamp;P1;durP1;ratioP1;P2;durP2;ratioP2
36411;SDS011;22445;52.100;5.176;2024-01-25T00:01:16;23.33;;;4.30;;
36411;SDS011;22445;52.100;5.176;2024-01-25T00:03:42;24.17;;;4.55;;
36411;SDS011;22445;52.100;5.176;2024-01-25T00:06:07;22.60;;;4.72;;
36411;SDS011;22445;52.100;5.176;2024-01-25T00:08:33;24.27;;;4.05;;
36411;SDS011;22445;52.100;5.176;2024-01-25T00:11:01;30.23;;;5.35;;
36411;SDS011;22445;52.100;5.176;2024-01-25T00:13:27;20.95;;;3.92;;
36411;SDS011;22445;52.100;5.176;2024-01-25T00:15:52;24.67;;;5.35;;
36411;SDS011;22445;52.100;5.176;2024-01-25T00:18:18;29.23;;;4.47;;
36411;SDS011;22445;52.100;5.176;2024-01-25T00:20:43;22.13;;;3.35;;
36411;SDS011;22445;52.100;5.176;2024-01-25T00:23:09;23.85;;;3.78;;
36411;SDS011;22445;52.100;5.176;2024-01-25T00:25:34;25.90;;;4.75;;
36411;SDS011;22445;52.100;5.176;2024-01-25T00:28:00;25.98;;;4.22;;
36411;SDS011;22445;52.100;5.176;2024-01-25T00:30:26;24.85;;;4.18;;
36411;SDS011;22445;52.100;5.176;2024-01-25T00:32:51;18.08;;;3.92;;
36411;SDS011;22445;52.100;5.176;2024-01-25T00:35:17;27.55;;;4.47;;
36411;SDS011;22445;52.100;5.176;2024-01-25T00:37:43;20.17;;;3.95;;
36411;SDS011;22445;52.100;5.176;2024-01-25T00:40:09;18.10;;;3.80;;
36411;SDS011;22445;52.100;5.176;2024-01-25T00:42:42;19.25;;;4.05;;
36411;SDS011;22445;52.100;5.176;2024-01-25T00:45:10;19.38;;;3.90;;
36411;SDS011;22445;52.100;5.176;2024-01-25T00:47:36;24.67;;;4.88;;
36411;SDS011;22445;52.100;5.176;2024-01-25T00:50:03;26.95;;;4.00;;
36411;SDS011;22445;52.100;5.176;2024-01-25T00:52:29;21.38;;;4.32;;
36411;SDS011;22445;52.100;5.176;2024-01-25T00:54:55;26.95;;;4.72;;
36411;SDS011;22445;52.100;5.176;2024-01-25T00:57:21;25.27;;;5.05;;
36411;SDS011;22445;52.100;5.176;2024-01-25T00:59:47;33.53;;;5.60;;
36411;SDS011;22445;52.100;5.176;2024-01-25T01:02:13;28.20;;;4.80;;
36411;SDS011;22445;52.100;5.176;2024-01-25T01:04:39;29.23;;;4.90;;
36411;SDS011;22445;52.100;5.176;2024-01-25T01:07:06;29.48;;;4.15;;
36411;SDS011;22445;52.100;5.176;2024-01-25T01:09:32;23.38;;;4.45;;
36411;SDS011;22445;52.100;5.176;2024-01-25T01:11:58;27.48;;;4.13;;
36411;SDS011;22445;52.100;5.176;2024-01-25T01:14:23;26.55;;;4.45;;
36411;SDS011;22445;52.100;5.176;2024-01-25T01:16:49;29.60;;;4.80;;
36411;SDS011;22445;52.100;5.176;2024-01-25T01:19:16;31.80;;;4.95;;
36411;SDS011;22445;52.100;5.176;2024-01-25T01:21:41;31.30;;;5.15;;
36411;SDS011;22445;52.100;5.176;2024-01-25T01:24:09;28.92;;;4.40;;
36411;SDS011;22445;52.100;5.176;2024-01-25T01:26:36;25.27;;;3.65;;
36411;SDS011;22445;52.100;5.176;2024-01-25T01:29:02;18.50;;;4.85;;
36411;SDS011;22445;52.100;5.176;2024-01-25T01:31:28;26.17;;;3.78;;
36411;SDS011;22445;52.100;5.176;2024-01-25T01:33:53;25.70;;;4.70;;
36411;SDS011;22445;52.100;5.176;2024-01-25T01:36:19;29.98;;;4.63;;
36411;SDS011;22445;52.100;5.176;2024-01-25T01:38:45;31.90;;;4.78;;
36411;SDS011;22445;52.100;5.176;2024-01-25T01:41:11;20.85;;;4.38;;
36411;SDS011;22445;52.100;5.176;2024-01-25T01:43:38;27.15;;;4.38;;
36411;SDS011;22445;52.100;5.176;2024-01-25T01:46:09;28.45;;;4.72;;
36411;SDS011;22445;52.100;5.176;2024-01-25T01:48:41;28.65;;;4.80;;
36411;SDS011;22445;52.100;5.176;2024-01-25T01:51:07;20.35;;;4.07;;
36411;SDS011;22445;52.100;5.176;2024-01-25T01:53:33;27.65;;;3.75;;
36411;SDS011;22445;52.100;5.176;2024-01-25T01:56:00;36.08;;;5.07;;
36411;SDS011;22445;52.100;5.176;2024-01-25T01:58:25;22.30;;;4.55;;
36411;SDS011;22445;52.100;5.176;2024-01-25T02:00:52;21.13;;;4.25;;
36411;SDS011;22445;52.100;5.176;2024-01-25T02:03:18;16.35;;;4.22;;
36411;SDS011;22445;52.100;5.176;2024-01-25T02:05:44;28.00;;;4.55;;
36411;SDS011;22445;52.100;5.176;2024-01-25T02:08:09;24.42;;;4.28;;
36411;SDS011;22445;52.100;5.176;2024-01-25T02:10:35;20.23;;;3.67;;
36411;SDS011;22445;52.100;5.176;2024-01-25T02:13:00;37.10;;;4.93;;
36411;SDS011;22445;52.100;5.176;2024-01-25T02:15:26;31.38;;;5.15;;
36411;SDS011;22445;52.100;5.176;2024-01-25T02:17:51;31.13;;;5.10;;
36411;SDS011;22445;52.100;5.176;2024-01-25T02:20:18;23.17;;;4.50;;
36411;SDS011;22445;52.100;5.176;2024-01-25T02:22:44;32.80;;;5.55;;
36411;SDS011;22445;52.100;5.176;2024-01-25T02:25:09;26.05;;;4.28;;
36411;SDS011;22445;52.100;5.176;2024-01-25T02:27:35;23.15;;;3.78;;
36411;SDS011;22445;52.100;5.176;2024-01-25T02:30:04;26.55;;;4.53;;
36411;SDS011;22445;52.100;5.176;2024-01-25T02:32:31;21.58;;;3.88;;
36411;SDS011;22445;52.100;5.176;2024-01-25T02:34:57;25.50;;;3.92;;
36411;SDS011;22445;52.100;5.176;2024-01-25T02:37:23;25.83;;;4.97;;
36411;SDS011;22445;52.100;5.176;2024-01-25T02:39:48;26.45;;;5.25;;
36411;SDS011;22445;52.100;5.176;2024-01-25T02:42:14;28.48;;;5.80;;
36411;SDS011;22445;52.100;5.176;2024-01-25T02:44:42;31.48;;;4.78;;
36411;SDS011;22445;52.100;5.176;2024-01-25T02:47:08;30.98;;;5.60;;
36411;SDS011;22445;52.100;5.176;2024-01-25T02:49:34;31.40;;;5.32;;
36411;SDS011;22445;52.100;5.176;2024-01-25T02:51:59;26.17;;;4.53;;
36411;SDS011;22445;52.100;5.176;2024-01-25T02:54:25;25.35;;;4.60;;
36411;SDS011;22445;52.100;5.176;2024-01-25T02:56:51;31.33;;;5.03;;
36411;SDS011;22445;52.100;5.176;2024-01-25T02:59:17;30.02;;;5.70;;
36411;SDS011;22445;52.100;5.176;2024-01-25T03:01:43;29.35;;;5.57;;
36411;SDS011;22445;52.100;5.176;2024-01-25T03:04:10;20.73;;;4.75;;
36411;SDS011;22445;52.100;5.176;2024-01-25T03:06:36;28.85;;;4.18;;
36411;SDS011;22445;52.100;5.176;2024-01-25T03:09:02;26.85;;;4.90;;
36411;SDS011;22445;52.100;5.176;2024-01-25T03:11:30;25.45;;;5.00;;
36411;SDS011;22445;52.100;5.176;2024-01-25T03:13:55;32.25;;;5.13;;
36411;SDS011;22445;52.100;5.176;2024-01-25T03:16:22;22.25;;;3.35;;
36411;SDS011;22445;52.100;5.176;2024-01-25T03:18:47;33.28;;;5.20;;
36411;SDS011;22445;52.100;5.176;2024-01-25T03:21:13;28.77;;;5.82;;
36411;SDS011;22445;52.100;5.176;2024-01-25T03:23:38;32.22;;;4.00;;
36411;SDS011;22445;52.100;5.176;2024-01-25T03:26:04;34.00;;;5.70;;
36411;SDS011;22445;52.100;5.176;2024-01-25T03:28:30;30.40;;;6.10;;
36411;SDS011;22445;52.100;5.176;2024-01-25T03:30:56;25.15;;;4.05;;
36411;SDS011;22445;52.100;5.176;2024-01-25T03:33:21;27.63;;;3.83;;
36411;SDS011;22445;52.100;5.176;2024-01-25T03:35:47;28.20;;;4.55;;
36411;SDS011;22445;52.100;5.176;2024-01-25T03:38:13;22.80;;;4.22;;
36411;SDS011;22445;52.100;5.176;2024-01-25T03:40:39;35.92;;;4.97;;
36411;SDS011;22445;52.100;5.176;2024-01-25T03:43:05;30.13;;;4.80;;
36411;SDS011;22445;52.100;5.176;2024-01-25T03:45:30;18.70;;;3.45;;
36411;SDS011;22445;52.100;5.176;2024-01-25T03:47:57;20.17;;;3.30;;
36411;SDS011;22445;52.100;5.176;2024-01-25T03:50:23;30.67;;;4.07;;
36411;SDS011;22445;52.100;5.176;2024-01-25T03:52:49;27.13;;;4.38;;
36411;SDS011;22445;52.100;5.176;2024-01-25T03:55:15;30.80;;;4.78;;
36411;SDS011;22445;52.100;5.176;2024-01-25T03:57:40;38.00;;;5.70;;
36411;SDS011;22445;52.100;5.176;2024-01-25T04:00:07;34.90;;;5.05;;
36411;SDS011;22445;52.100;5.176;2024-01-25T04:02:34;42.78;;;4.63;;
36411;SDS011;22445;52.100;5.176;2024-01-25T04:04:59;41.45;;;6.53;;
36411;SDS011;22445;52.100;5.176;2024-01-25T04:07:25;38.30;;;5.85;;
36411;SDS011;22445;52.100;5.176;2024-01-25T04:09:51;33.60;;;3.85;;
36411;SDS011;22445;52.100;5.176;2024-01-25T04:12:16;32.00;;;4.97;;
36411;SDS011;22445;52.100;5.176;2024-01-25T04:14:42;22.63;;;4.80;;
36411;SDS011;22445;52.100;5.176;2024-01-25T04:17:07;27.00;;;3.85;;
36411;SDS011;22445;52.100;5.176;2024-01-25T04:19:35;30.67;;;4.32;;
36411;SDS011;22445;52.100;5.176;2024-01-25T04:22:01;22.48;;;3.90;;
36411;SDS011;22445;52.100;5.176;2024-01-25T04:24:26;27.83;;;4.32;;
36411;SDS011;22445;52.100;5.176;2024-01-25T04:26:52;17.70;;;4.30;;
36411;SDS011;22445;52.100;5.176;2024-01-25T04:29:17;33.58;;;5.65;;
36411;SDS011;22445;52.100;5.176;2024-01-25T04:31:43;28.23;;;4.30;;
36411;SDS011;22445;52.100;5.176;2024-01-25T04:34:10;18.08;;;3.50;;
36411;SDS011;22445;52.100;5.176;2024-01-25T04:36:36;27.17;;;5.03;;
36411;SDS011;22445;52.100;5.176;2024-01-25T04:39:02;40.78;;;5.57;;
36411;SDS011;22445;52.100;5.176;2024-01-25T04:41:30;22.48;;;4.53;;
36411;SDS011;22445;52.100;5.176;2024-01-25T04:43:55;28.77;;;4.68;;
36411;SDS011;22445;52.100;5.176;2024-01-25T04:46:21;31.65;;;5.72;;
36411;SDS011;22445;52.100;5.176;2024-01-25T04:48:47;31.15;;;4.72;;
36411;SDS011;22445;52.100;5.176;2024-01-25T04:51:15;31.17;;;5.20;;
36411;SDS011;22445;52.100;5.176;2024-01-25T04:53:42;33.28;;;4.03;;
36411;SDS011;22445;52.100;5.176;2024-01-25T04:56:08;18.90;;;3.88;;
36411;SDS011;22445;52.100;5.176;2024-01-25T04:58:33;31.35;;;4.63;;
36411;SDS011;22445;52.100;5.176;2024-01-25T05:01:00;24.40;;;4.22;;
36411;SDS011;22445;52.100;5.176;2024-01-25T05:03:25;26.88;;;4.75;;
36411;SDS011;22445;52.100;5.176;2024-01-25T05:05:51;27.52;;;4.53;;
36411;SDS011;22445;52.100;5.176;2024-01-25T05:08:16;29.13;;;4.22;;
36411;SDS011;22445;52.100;5.176;2024-01-25T05:10:42;39.20;;;5.05;;
36411;SDS011;22445;52.100;5.176;2024-01-25T05:13:08;22.58;;;3.95;;
36411;SDS011;22445;52.100;5.176;2024-01-25T05:15:34;20.77;;;3.28;;
36411;SDS011;22445;52.100;5.176;2024-01-25T05:18:00;27.05;;;5.60;;
36411;SDS011;22445;52.100;5.176;2024-01-25T05:20:26;26.00;;;4.20;;
36411;SDS011;22445;52.100;5.176;2024-01-25T05:23:04;31.52;;;5.35;;
36411;SDS011;22445;52.100;5.176;2024-01-25T05:25:30;27.73;;;4.75;;
36411;SDS011;22445;52.100;5.176;2024-01-25T05:27:56;27.40;;;5.35;;
36411;SDS011;22445;52.100;5.176;2024-01-25T05:30:22;30.77;;;5.50;;
36411;SDS011;22445;52.100;5.176;2024-01-25T05:32:49;25.02;;;4.88;;
36411;SDS011;22445;52.100;5.176;2024-01-25T05:35:15;28.60;;;4.10;;
36411;SDS011;22445;52.100;5.176;2024-01-25T05:37:42;28.58;;;4.47;;
36411;SDS011;22445;52.100;5.176;2024-01-25T05:40:08;46.47;;;4.97;;
36411;SDS011;22445;52.100;5.176;2024-01-25T05:42:34;33.42;;;5.05;;
36411;SDS011;22445;52.100;5.176;2024-01-25T05:45:01;27.92;;;5.45;;
36411;SDS011;22445;52.100;5.176;2024-01-25T05:47:27;40.50;;;5.10;;
36411;SDS011;22445;52.100;5.176;2024-01-25T05:49:53;36.40;;;6.18;;
36411;SDS011;22445;52.100;5.176;2024-01-25T05:52:18;31.90;;;5.30;;
36411;SDS011;22445;52.100;5.176;2024-01-25T05:54:46;26.77;;;4.70;;
36411;SDS011;22445;52.100;5.176;2024-01-25T05:57:11;36.33;;;5.38;;
36411;SDS011;22445;52.100;5.176;2024-01-25T05:59:37;34.17;;;5.35;;
36411;SDS011;22445;52.100;5.176;2024-01-25T06:02:03;46.58;;;5.70;;
36411;SDS011;22445;52.100;5.176;2024-01-25T06:04:29;33.45;;;5.45;;
36411;SDS011;22445;52.100;5.176;2024-01-25T06:06:54;42.90;;;10.13;;
36411;SDS011;22445;52.100;5.176;2024-01-25T06:09:20;32.28;;;10.65;;
36411;SDS011;22445;52.100;5.176;2024-01-25T06:11:45;47.35;;;11.00;;
36411;SDS011;22445;52.100;5.176;2024-01-25T06:14:11;35.70;;;7.93;;
36411;SDS011;22445;52.100;5.176;2024-01-25T06:16:37;35.83;;;8.00;;
36411;SDS011;22445;52.100;5.176;2024-01-25T06:19:03;38.78;;;9.77;;
36411;SDS011;22445;52.100;5.176;2024-01-25T06:21:28;48.53;;;11.90;;
36411;SDS011;22445;52.100;5.176;2024-01-25T06:23:54;42.88;;;12.95;;
36411;SDS011;22445;52.100;5.176;2024-01-25T06:26:20;42.55;;;12.60;;
36411;SDS011;22445;52.100;5.176;2024-01-25T06:28:45;53.58;;;13.55;;
36411;SDS011;22445;52.100;5.176;2024-01-25T06:31:11;50.42;;;13.38;;
36411;SDS011;22445;52.100;5.176;2024-01-25T06:33:37;33.80;;;11.98;;
36411;SDS011;22445;52.100;5.176;2024-01-25T06:36:02;52.72;;;14.18;;
36411;SDS011;22445;52.100;5.176;2024-01-25T06:38:28;35.80;;;11.48;;
36411;SDS011;22445;52.100;5.176;2024-01-25T06:40:53;58.67;;;12.75;;
36411;SDS011;22445;52.100;5.176;2024-01-25T06:43:19;36.40;;;10.43;;
36411;SDS011;22445;52.100;5.176;2024-01-25T06:45:44;49.88;;;11.38;;
36411;SDS011;22445;52.100;5.176;2024-01-25T06:48:10;40.30;;;9.95;;
36411;SDS011;22445;52.100;5.176;2024-01-25T06:50:36;32.28;;;9.85;;
36411;SDS011;22445;52.100;5.176;2024-01-25T06:53:02;43.15;;;8.98;;
36411;SDS011;22445;52.100;5.176;2024-01-25T06:55:28;50.10;;;10.10;;
36411;SDS011;22445;52.100;5.176;2024-01-25T06:57:54;45.92;;;9.98;;
36411;SDS011;22445;52.100;5.176;2024-01-25T07:00:20;45.45;;;9.80;;
36411;SDS011;22445;52.100;5.176;2024-01-25T07:02:46;47.13;;;10.02;;
36411;SDS011;22445;52.100;5.176;2024-01-25T07:05:12;38.65;;;9.63;;
36411;SDS011;22445;52.100;5.176;2024-01-25T07:07:38;45.13;;;9.55;;
36411;SDS011;22445;52.100;5.176;2024-01-25T07:10:07;35.45;;;8.65;;
36411;SDS011;22445;52.100;5.176;2024-01-25T07:12:33;32.97;;;9.05;;
36411;SDS011;22445;52.100;5.176;2024-01-25T07:14:59;43.63;;;9.10;;
36411;SDS011;22445;52.100;5.176;2024-01-25T07:17:24;38.28;;;8.48;;
36411;SDS011;22445;52.100;5.176;2024-01-25T07:19:50;41.65;;;7.55;;
36411;SDS011;22445;52.100;5.176;2024-01-25T07:22:16;39.63;;;7.65;;
36411;SDS011;22445;52.100;5.176;2024-01-25T07:24:43;43.13;;;8.52;;
36411;SDS011;22445;52.100;5.176;2024-01-25T07:27:10;30.83;;;7.75;;
36411;SDS011;22445;52.100;5.176;2024-01-25T07:29:36;44.30;;;8.25;;
36411;SDS011;22445;52.100;5.176;2024-01-25T07:32:02;35.70;;;6.38;;
36411;SDS011;22445;52.100;5.176;2024-01-25T07:34:28;28.35;;;7.90;;
36411;SDS011;22445;52.100;5.176;2024-01-25T07:36:53;24.23;;;6.88;;
36411;SDS011;22445;52.100;5.176;2024-01-25T07:39:19;36.30;;;6.85;;
36411;SDS011;22445;52.100;5.176;2024-01-25T07:41:44;37.88;;;6.78;;
36411;SDS011;22445;52.100;5.176;2024-01-25T07:44:10;31.52;;;7.40;;
36411;SDS011;22445;52.100;5.176;2024-01-25T07:46:36;33.95;;;7.40;;
36411;SDS011;22445;52.100;5.176;2024-01-25T07:49:01;37.92;;;7.57;;
36411;SDS011;22445;52.100;5.176;2024-01-25T07:51:27;24.67;;;6.32;;
36411;SDS011;22445;52.100;5.176;2024-01-25T07:53:54;32.75;;;7.70;;
36411;SDS011;22445;52.100;5.176;2024-01-25T07:56:19;27.83;;;7.13;;
36411;SDS011;22445;52.100;5.176;2024-01-25T07:58:47;32.58;;;8.38;;
36411;SDS011;22445;52.100;5.176;2024-01-25T08:01:19;32.55;;;7.28;;
36411;SDS011;22445;52.100;5.176;2024-01-25T08:03:46;30.13;;;7.60;;
36411;SDS011;22445;52.100;5.176;2024-01-25T08:06:12;24.67;;;6.70;;
36411;SDS011;22445;52.100;5.176;2024-01-25T08:08:38;25.45;;;7.25;;
36411;SDS011;22445;52.100;5.176;2024-01-25T08:11:03;33.47;;;6.75;;
36411;SDS011;22445;52.100;5.176;2024-01-25T08:13:29;40.85;;;7.90;;
36411;SDS011;22445;52.100;5.176;2024-01-25T08:15:55;29.17;;;8.52;;
36411;SDS011;22445;52.100;5.176;2024-01-25T08:18:21;29.73;;;7.13;;
36411;SDS011;22445;52.100;5.176;2024-01-25T08:20:48;35.55;;;6.97;;
36411;SDS011;22445;52.100;5.176;2024-01-25T08:23:14;41.70;;;6.95;;
36411;SDS011;22445;52.100;5.176;2024-01-25T08:25:40;37.20;;;7.68;;
36411;SDS011;22445;52.100;5.176;2024-01-25T08:28:06;33.92;;;7.25;;
36411;SDS011;22445;52.100;5.176;2024-01-25T08:30:31;41.78;;;8.13;;
36411;SDS011;22445;52.100;5.176;2024-01-25T08:32:57;30.42;;;7.10;;
36411;SDS011;22445;52.100;5.176;2024-01-25T08:35:23;39.63;;;8.75;;
36411;SDS011;22445;52.100;5.176;2024-01-25T08:37:49;47.90;;;9.23;;
36411;SDS011;22445;52.100;5.176;2024-01-25T08:40:15;52.80;;;9.55;;
36411;SDS011;22445;52.100;5.176;2024-01-25T08:42:40;51.53;;;9.60;;
36411;SDS011;22445;52.100;5.176;2024-01-25T08:45:06;40.63;;;12.57;;
36411;SDS011;22445;52.100;5.176;2024-01-25T08:47:36;55.45;;;13.35;;
36411;SDS011;22445;52.100;5.176;2024-01-25T08:50:02;47.63;;;16.65;;
36411;SDS011;22445;52.100;5.176;2024-01-25T08:52:29;66.38;;;24.83;;
36411;SDS011;22445;52.100;5.176;2024-01-25T08:54:54;76.00;;;32.80;;
36411;SDS011;22445;52.100;5.176;2024-01-25T08:57:20;55.75;;;21.55;;
36411;SDS011;22445;52.100;5.176;2024-01-25T08:59:45;57.97;;;23.13;;
36411;SDS011;22445;52.100;5.176;2024-01-25T09:02:11;62.08;;;21.70;;
36411;SDS011;22445;52.100;5.176;2024-01-25T09:04:37;51.72;;;13.25;;
36411;SDS011;22445;52.100;5.176;2024-01-25T09:07:02;60.47;;;17.08;;
36411;SDS011;22445;52.100;5.176;2024-01-25T09:09:28;56.63;;;18.30;;
36411;SDS011;22445;52.100;5.176;2024-01-25T09:11:54;67.25;;;24.58;;
36411;SDS011;22445;52.100;5.176;2024-01-25T09:14:19;67.05;;;24.98;;
36411;SDS011;22445;52.100;5.176;2024-01-25T09:16:45;53.17;;;22.83;;
36411;SDS011;22445;52.100;5.176;2024-01-25T09:19:11;85.78;;;40.83;;
36411;SDS011;22445;52.100;5.176;2024-01-25T09:21:39;77.32;;;41.70;;
36411;SDS011;22445;52.100;5.176;2024-01-25T09:24:05;71.43;;;35.30;;
36411;SDS011;22445;52.100;5.176;2024-01-25T09:26:32;48.13;;;26.08;;
36411;SDS011;22445;52.100;5.176;2024-01-25T09:28:58;51.50;;;23.42;;
36411;SDS011;22445;52.100;5.176;2024-01-25T09:31:23;44.25;;;18.48;;
36411;SDS011;22445;52.100;5.176;2024-01-25T09:33:49;43.13;;;15.23;;
36411;SDS011;22445;52.100;5.176;2024-01-25T09:36:16;39.63;;;13.43;;
36411;SDS011;22445;52.100;5.176;2024-01-25T09:38:42;36.50;;;11.30;;
36411;SDS011;22445;52.100;5.176;2024-01-25T09:41:08;35.33;;;9.80;;
36411;SDS011;22445;52.100;5.176;2024-01-25T09:43:33;32.03;;;8.88;;
36411;SDS011;22445;52.100;5.176;2024-01-25T09:45:59;29.20;;;7.97;;
36411;SDS011;22445;52.100;5.176;2024-01-25T09:48:25;26.80;;;8.27;;
36411;SDS011;22445;52.100;5.176;2024-01-25T09:50:52;28.02;;;8.23;;
36411;SDS011;22445;52.100;5.176;2024-01-25T09:53:23;36.00;;;7.85;;
36411;SDS011;22445;52.100;5.176;2024-01-25T09:56:10;30.25;;;7.63;;
36411;SDS011;22445;52.100;5.176;2024-01-25T09:58:40;26.95;;;6.57;;
36411;SDS011;22445;52.100;5.176;2024-01-25T10:01:10;35.88;;;6.50;;
36411;SDS011;22445;52.100;5.176;2024-01-25T10:03:46;27.17;;;6.32;;
36411;SDS011;22445;52.100;5.176;2024-01-25T10:06:12;30.25;;;6.03;;
36411;SDS011;22445;52.100;5.176;2024-01-25T10:08:38;22.85;;;6.43;;
36411;SDS011;22445;52.100;5.176;2024-01-25T10:11:05;25.17;;;6.72;;
36411;SDS011;22445;52.100;5.176;2024-01-25T10:13:31;31.17;;;6.03;;
36411;SDS011;22445;52.100;5.176;2024-01-25T10:15:57;20.02;;;5.53;;
36411;SDS011;22445;52.100;5.176;2024-01-25T10:18:23;26.08;;;6.40;;
36411;SDS011;22445;52.100;5.176;2024-01-25T10:20:51;21.95;;;5.40;;
36411;SDS011;22445;52.100;5.176;2024-01-25T10:23:18;26.75;;;6.78;;
36411;SDS011;22445;52.100;5.176;2024-01-25T10:25:44;30.25;;;6.05;;
36411;SDS011;22445;52.100;5.176;2024-01-25T10:28:09;24.05;;;5.20;;
36411;SDS011;22445;52.100;5.176;2024-01-25T10:30:35;23.95;;;6.30;;
36411;SDS011;22445;52.100;5.176;2024-01-25T10:33:02;18.80;;;5.15;;
36411;SDS011;22445;52.100;5.176;2024-01-25T10:35:29;23.05;;;5.22;;
36411;SDS011;22445;52.100;5.176;2024-01-25T10:37:56;25.95;;;6.60;;
36411;SDS011;22445;52.100;5.176;2024-01-25T10:40:22;21.73;;;5.75;;
36411;SDS011;22445;52.100;5.176;2024-01-25T10:42:48;23.92;;;6.32;;
36411;SDS011;22445;52.100;5.176;2024-01-25T10:45:14;31.05;;;6.60;;
36411;SDS011;22445;52.100;5.176;2024-01-25T10:47:40;21.30;;;5.40;;
36411;SDS011;22445;52.100;5.176;2024-01-25T10:50:12;19.05;;;5.18;;
36411;SDS011;22445;52.100;5.176;2024-01-25T10:52:41;23.27;;;5.65;;
36411;SDS011;22445;52.100;5.176;2024-01-25T10:55:07;26.48;;;5.32;;
36411;SDS011;22445;52.100;5.176;2024-01-25T10:57:37;24.98;;;5.60;;
36411;SDS011;22445;52.100;5.176;2024-01-25T11:00:09;24.25;;;6.18;;
36411;SDS011;22445;52.100;5.176;2024-01-25T11:02:36;25.45;;;5.50;;
36411;SDS011;22445;52.100;5.176;2024-01-25T11:05:06;21.40;;;5.15;;
36411;SDS011;22445;52.100;5.176;2024-01-25T11:07:42;25.80;;;5.78;;
36411;SDS011;22445;52.100;5.176;2024-01-25T11:10:27;30.42;;;6.80;;
36411;SDS011;22445;52.100;5.176;2024-01-25T11:12:57;33.17;;;7.13;;
36411;SDS011;22445;52.100;5.176;2024-01-25T11:15:31;25.45;;;6.57;;
36411;SDS011;22445;52.100;5.176;2024-01-25T11:18:01;20.27;;;5.85;;
36411;SDS011;22445;52.100;5.176;2024-01-25T11:20:28;25.60;;;6.00;;
36411;SDS011;22445;52.100;5.176;2024-01-25T11:22:58;28.15;;;5.47;;
36411;SDS011;22445;52.100;5.176;2024-01-25T11:25:27;23.90;;;6.60;;
36411;SDS011;22445;52.100;5.176;2024-01-25T11:27:54;27.30;;;6.03;;
36411;SDS011;22445;52.100;5.176;2024-01-25T11:30:20;26.20;;;6.38;;
36411;SDS011;22445;52.100;5.176;2024-01-25T11:32:49;23.27;;;6.20;;
36411;SDS011;22445;52.100;5.176;2024-01-25T11:35:15;23.08;;;6.38;;
36411;SDS011;22445;52.100;5.176;2024-01-25T11:37:44;25.95;;;6.32;;
36411;SDS011;22445;52.100;5.176;2024-01-25T11:40:11;25.80;;;6.22;;
36411;SDS011;22445;52.100;5.176;2024-01-25T11:42:37;18.48;;;6.07;;
36411;SDS011;22445;52.100;5.176;2024-01-25T11:45:04;28.42;;;6.25;;
36411;SDS011;22445;52.100;5.176;2024-01-25T11:47:35;22.75;;;5.97;;
36411;SDS011;22445;52.100;5.176;2024-01-25T11:50:01;23.90;;;6.20;;
36411;SDS011;22445;52.100;5.176;2024-01-25T11:52:27;34.78;;;7.93;;
36411;SDS011;22445;52.100;5.176;2024-01-25T11:54:53;24.23;;;6.43;;
36411;SDS011;22445;52.100;5.176;2024-01-25T11:57:19;26.33;;;5.65;;
36411;SDS011;22445;52.100;5.176;2024-01-25T11:59:45;30.25;;;7.75;;
36411;SDS011;22445;52.100;5.176;2024-01-25T12:02:12;28.48;;;6.43;;
36411;SDS011;22445;52.100;5.176;2024-01-25T12:04:41;23.52;;;6.07;;
36411;SDS011;22445;52.100;5.176;2024-01-25T12:07:07;25.13;;;6.05;;
36411;SDS011;22445;52.100;5.176;2024-01-25T12:09:33;27.60;;;7.50;;
36411;SDS011;22445;52.100;5.176;2024-01-25T12:12:01;25.92;;;7.18;;
36411;SDS011;22445;52.100;5.176;2024-01-25T12:14:27;27.02;;;7.03;;
36411;SDS011;22445;52.100;5.176;2024-01-25T12:16:56;26.92;;;7.05;;
36411;SDS011;22445;52.100;5.176;2024-01-25T12:19:22;23.48;;;6.55;;
36411;SDS011;22445;52.100;5.176;2024-01-25T12:21:47;29.05;;;7.03;;
36411;SDS011;22445;52.100;5.176;2024-01-25T12:24:13;28.33;;;7.10;;
36411;SDS011;22445;52.100;5.176;2024-01-25T12:26:39;24.20;;;7.15;;
36411;SDS011;22445;52.100;5.176;2024-01-25T12:29:06;28.65;;;7.55;;
36411;SDS011;22445;52.100;5.176;2024-01-25T12:31:33;23.20;;;6.80;;
36411;SDS011;22445;52.100;5.176;2024-01-25T12:34:02;24.92;;;7.57;;
36411;SDS011;22445;52.100;5.176;2024-01-25T12:36:28;21.52;;;6.85;;
36411;SDS011;22445;52.100;5.176;2024-01-25T12:38:53;24.20;;;8.15;;
36411;SDS011;22445;52.100;5.176;2024-01-25T12:41:19;31.30;;;8.00;;
36411;SDS011;22445;52.100;5.176;2024-01-25T12:43:44;29.45;;;7.90;;
36411;SDS011;22445;52.100;5.176;2024-01-25T12:46:10;28.92;;;8.25;;
36411;SDS011;22445;52.100;5.176;2024-01-25T12:48:36;21.90;;;7.35;;
36411;SDS011;22445;52.100;5.176;2024-01-25T12:51:01;29.17;;;7.57;;
36411;SDS011;22445;52.100;5.176;2024-01-25T12:53:27;29.13;;;7.68;;
36411;SDS011;22445;52.100;5.176;2024-01-25T12:55:52;23.20;;;8.02;;
36411;SDS011;22445;52.100;5.176;2024-01-25T12:58:18;31.05;;;7.38;;
36411;SDS011;22445;52.100;5.176;2024-01-25T13:00:43;21.42;;;6.28;;
36411;SDS011;22445;52.100;5.176;2024-01-25T13:03:10;27.92;;;7.97;;
36411;SDS011;22445;52.100;5.176;2024-01-25T13:05:36;27.17;;;8.05;;
36411;SDS011;22445;52.100;5.176;2024-01-25T13:08:04;26.67;;;6.85;;
36411;SDS011;22445;52.100;5.176;2024-01-25T13:10:30;28.65;;;7.65;;
36411;SDS011;22445;52.100;5.176;2024-01-25T13:12:56;29.73;;;7.07;;
36411;SDS011;22445;52.100;5.176;2024-01-25T13:15:22;28.70;;;7.97;;
36411;SDS011;22445;52.100;5.176;2024-01-25T13:17:48;27.30;;;6.88;;
36411;SDS011;22445;52.100;5.176;2024-01-25T13:20:14;25.65;;;7.25;;
36411;SDS011;22445;52.100;5.176;2024-01-25T13:22:40;34.70;;;8.40;;
36411;SDS011;22445;52.100;5.176;2024-01-25T13:25:06;23.08;;;7.18;;
36411;SDS011;22445;52.100;5.176;2024-01-25T13:27:32;26.38;;;8.15;;
36411;SDS011;22445;52.100;5.176;2024-01-25T13:29:57;32.05;;;7.63;;
36411;SDS011;22445;52.100;5.176;2024-01-25T13:32:23;30.92;;;7.43;;
36411;SDS011;22445;52.100;5.176;2024-01-25T13:34:49;25.58;;;7.57;;
36411;SDS011;22445;52.100;5.176;2024-01-25T13:37:15;29.08;;;7.57;;
36411;SDS011;22445;52.100;5.176;2024-01-25T13:39:40;29.30;;;9.10;;
36411;SDS011;22445;52.100;5.176;2024-01-25T13:42:06;28.83;;;7.28;;
36411;SDS011;22445;52.100;5.176;2024-01-25T13:44:31;30.80;;;8.25;;
36411;SDS011;22445;52.100;5.176;2024-01-25T13:46:57;26.92;;;7.07;;
36411;SDS011;22445;52.100;5.176;2024-01-25T13:49:23;28.95;;;7.85;;
36411;SDS011;22445;52.100;5.176;2024-01-25T13:51:49;34.75;;;7.80;;
36411;SDS011;22445;52.100;5.176;2024-01-25T13:54:15;32.47;;;9.00;;
36411;SDS011;22445;52.100;5.176;2024-01-25T13:56:40;28.85;;;8.35;;
36411;SDS011;22445;52.100;5.176;2024-01-25T13:59:06;32.30;;;8.57;;
36411;SDS011;22445;52.100;5.176;2024-01-25T14:01:32;33.20;;;8.30;;
36411;SDS011;22445;52.100;5.176;2024-01-25T14:03:58;31.10;;;7.43;;
36411;SDS011;22445;52.100;5.176;2024-01-25T14:06:24;35.95;;;7.80;;
36411;SDS011;22445;52.100;5.176;2024-01-25T14:08:49;22.55;;;7.13;;
36411;SDS011;22445;52.100;5.176;2024-01-25T14:11:15;40.35;;;9.02;;
36411;SDS011;22445;52.100;5.176;2024-01-25T14:13:41;27.15;;;7.38;;
36411;SDS011;22445;52.100;5.176;2024-01-25T14:16:07;33.53;;;8.00;;
36411;SDS011;22445;52.100;5.176;2024-01-25T14:18:38;27.88;;;7.82;;
36411;SDS011;22445;52.100;5.176;2024-01-25T14:21:07;35.42;;;8.15;;
36411;SDS011;22445;52.100;5.176;2024-01-25T14:23:33;31.40;;;9.10;;
36411;SDS011;22445;52.100;5.176;2024-01-25T14:25:59;32.13;;;8.35;;
36411;SDS011;22445;52.100;5.176;2024-01-25T14:28:24;36.92;;;9.20;;